createdAt,value
2023-02-19T00:02:26.017Z,2.40
2023-02-19T00:04:53.412Z,0.50
2023-02-19T00:07:21.475Z,2.00
2023-02-19T00:09:48.859Z,2.00
2023-02-19T00:12:16.284Z,0.10
2023-02-19T00:14:43.782Z,0.30
2023-02-19T00:17:11.285Z,0.70
2023-02-19T00:19:38.635Z,2.00
2023-02-19T00:22:06.309Z,0.30
2023-02-19T00:24:33.710Z,1.70
2023-02-19T00:27:01.236Z,0.00
2023-02-19T00:29:28.790Z,1.60
2023-02-19T00:31:56.306Z,0.20
2023-02-19T00:34:23.839Z,0.30
2023-02-19T00:36:51.353Z,0.00
2023-02-19T00:39:18.998Z,2.20
2023-02-19T00:41:46.692Z,-0.30
2023-02-19T00:44:14.631Z,-0.20
2023-02-19T00:46:45.171Z,0.70
2023-02-19T00:49:17.225Z,-0.40
2023-02-19T00:51:45.091Z,1.60
2023-02-19T00:54:13.207Z,-0.50
2023-02-19T00:56:41.652Z,1.20
2023-02-19T00:59:09.819Z,-0.40
2023-02-19T01:01:37.739Z,-0.20
2023-02-19T01:04:06.669Z,-0.50
2023-02-19T01:06:35.551Z,-0.60
2023-02-19T01:09:04.492Z,-0.40
2023-02-19T01:11:32.042Z,1.60
2023-02-19T01:14:01.078Z,-0.50
2023-02-19T01:16:28.670Z,-0.70
2023-02-19T01:18:57.469Z,-0.50
2023-02-19T01:21:26.946Z,1.20
2023-02-19T01:23:55.904Z,-0.80
2023-02-19T01:26:29.962Z,-0.50
2023-02-19T01:28:57.827Z,-0.70
2023-02-19T01:31:26.129Z,-0.40
2023-02-19T01:33:58.866Z,-0.20
2023-02-19T01:36:27.806Z,1.80
2023-02-19T01:38:55.780Z,-0.60
2023-02-19T01:41:25.699Z,2.00
2023-02-19T01:43:57.491Z,1.90
2023-02-19T01:46:30.552Z,-0.60
2023-02-19T01:49:01.170Z,1.30
2023-02-19T01:51:30.921Z,0.70
2023-02-19T01:54:01.685Z,1.90
2023-02-19T01:56:31.548Z,-0.50
2023-02-19T01:59:00.665Z,-0.50
2023-02-19T02:01:28.024Z,-0.80
2023-02-19T02:03:55.659Z,-0.90
2023-02-19T02:06:26.145Z,-0.80
2023-02-19T02:09:15.591Z,0.10
2023-02-19T02:11:47.677Z,-0.80
2023-02-19T02:14:17.385Z,-0.80
2023-02-19T02:17:16.495Z,1.90
2023-02-19T02:20:15.887Z,-1.50
2023-02-19T02:23:09.083Z,-0.50
2023-02-19T02:25:56.468Z,-0.50
2023-02-19T02:28:54.703Z,-0.50
2023-02-19T02:31:27.843Z,-0.60
2023-02-19T02:34:19.358Z,1.20
2023-02-19T02:36:53.018Z,-0.50
2023-02-19T02:39:24.447Z,2.00
2023-02-19T02:42:16.272Z,1.50
2023-02-19T02:45:04.739Z,2.00
2023-02-19T02:47:43.412Z,-0.30
2023-02-19T02:50:24.688Z,-1.40
2023-02-19T02:53:21.765Z,-0.60
2023-02-19T02:55:52.543Z,-0.30
2023-02-19T02:58:22.978Z,-0.70
2023-02-19T03:01:16.844Z,-0.90
2023-02-19T03:03:48.279Z,1.10
2023-02-19T03:06:20.880Z,-0.60
2023-02-19T03:09:12.280Z,-0.90
2023-02-19T03:12:02.826Z,0.30
2023-02-19T03:14:58.384Z,0.90
2023-02-19T03:17:58.530Z,-0.80
2023-02-19T03:20:27.675Z,-0.80
2023-02-19T03:22:57.282Z,-0.90
2023-02-19T03:25:46.747Z,-0.90
2023-02-19T03:28:17.684Z,-1.00
2023-02-19T03:30:52.567Z,1.70
2023-02-19T03:33:25.307Z,-0.90
2023-02-19T03:36:05.420Z,-0.70
2023-02-19T03:39:04.809Z,-0.90
2023-02-19T03:41:51.297Z,-0.50
2023-02-19T03:44:41.193Z,-0.40
2023-02-19T03:47:31.630Z,-0.60
2023-02-19T03:50:19.685Z,-0.70
2023-02-19T03:53:10.701Z,-0.70
2023-02-19T03:56:02.723Z,-0.60
2023-02-19T03:58:40.702Z,-1.00
2023-02-19T04:01:16.054Z,-0.60
2023-02-19T04:03:52.974Z,1.10
2023-02-19T04:06:26.292Z,-0.90
2023-02-19T04:08:58.693Z,2.60
2023-02-19T04:11:28.318Z,2.00
2023-02-19T04:14:03.248Z,1.80
2023-02-19T04:16:33.062Z,-0.70
2023-02-19T04:19:07.700Z,2.30
2023-02-19T04:21:37.246Z,1.70
2023-02-19T04:24:12.362Z,1.30
2023-02-19T04:26:41.635Z,-0.50
2023-02-19T04:29:09.007Z,-0.80
2023-02-19T04:31:38.654Z,0.60
2023-02-19T04:34:06.191Z,-0.80
2023-02-19T04:36:34.186Z,-0.70
2023-02-19T04:39:01.994Z,-0.70
2023-02-19T04:41:29.344Z,-1.10
2023-02-19T04:43:56.644Z,2.10
2023-02-19T04:46:24.191Z,0.00
2023-02-19T04:48:51.829Z,-0.60
2023-02-19T04:51:19.168Z,-1.00
2023-02-19T04:53:46.557Z,-0.70
2023-02-19T04:56:16.139Z,-0.10
2023-02-19T04:58:44.727Z,2.30
2023-02-19T05:01:13.094Z,-0.90
2023-02-19T05:03:40.887Z,0.50
2023-02-19T05:06:10.939Z,-0.50
2023-02-19T05:08:38.540Z,-0.90
2023-02-19T05:11:07.746Z,-0.90
2023-02-19T05:13:35.274Z,1.60
2023-02-19T05:16:16.261Z,-0.50
2023-02-19T05:18:45.590Z,-0.70
2023-02-19T05:21:13.717Z,-0.80
2023-02-19T05:23:41.933Z,1.80
2023-02-19T05:26:13.689Z,-0.80
2023-02-19T05:28:41.186Z,-0.80
2023-02-19T05:31:09.839Z,1.20
2023-02-19T05:33:38.380Z,-0.90
2023-02-19T05:36:08.707Z,-0.90
2023-02-19T05:38:36.730Z,-0.20
2023-02-19T05:41:13.676Z,-0.90
2023-02-19T05:43:42.704Z,-0.70
2023-02-19T05:46:14.673Z,-0.70
2023-02-19T05:48:42.891Z,-0.90
2023-02-19T05:51:13.094Z,-0.80
2023-02-19T05:53:41.645Z,-1.10
2023-02-19T05:56:18.104Z,-1.00
2023-02-19T05:58:45.458Z,0.10
2023-02-19T06:01:21.708Z,-0.90
2023-02-19T06:03:49.200Z,-0.70
2023-02-19T06:06:18.676Z,0.60
2023-02-19T06:08:48.016Z,-0.80
2023-02-19T06:11:15.434Z,-0.80
2023-02-19T06:13:42.929Z,-0.30
2023-02-19T06:16:11.007Z,-0.70
2023-02-19T06:18:40.806Z,-0.30
2023-02-19T06:21:11.281Z,-0.50
2023-02-19T06:23:39.961Z,-0.50
2023-02-19T06:26:20.744Z,-0.60
2023-02-19T06:28:50.618Z,-0.40
2023-02-19T06:31:19.666Z,1.70
2023-02-19T06:33:47.754Z,1.30
2023-02-19T06:36:17.677Z,-0.60
2023-02-19T06:38:45.221Z,-0.70
2023-02-19T06:41:14.005Z,1.80
2023-02-19T06:43:42.308Z,-0.30
2023-02-19T06:46:12.842Z,-0.40
2023-02-19T06:48:41.978Z,-0.60
2023-02-19T06:51:13.313Z,-1.10
2023-02-19T06:53:40.750Z,1.10
2023-02-19T06:56:24.874Z,-0.40
2023-02-19T06:58:57.771Z,-0.20
2023-02-19T07:01:25.663Z,0.00
2023-02-19T07:03:53.830Z,-0.30
2023-02-19T07:06:22.776Z,2.20
2023-02-19T07:08:50.878Z,-0.50
2023-02-19T07:11:18.825Z,2.20
2023-02-19T07:13:46.281Z,1.70
2023-02-19T07:16:14.682Z,-0.40
2023-02-19T07:18:42.179Z,1.50
2023-02-19T07:21:12.609Z,-0.20
2023-02-19T07:23:40.654Z,2.50
2023-02-19T07:26:12.903Z,1.40
2023-02-19T07:28:44.673Z,2.30
2023-02-19T07:31:13.331Z,2.70
2023-02-19T07:33:46.753Z,-0.10
2023-02-19T07:36:17.049Z,0.00
2023-02-19T07:38:45.339Z,0.70
2023-02-19T07:41:13.069Z,1.40
2023-02-19T07:43:40.806Z,-0.50
2023-02-19T07:46:10.791Z,-0.10
2023-02-19T07:48:39.507Z,-0.50
2023-02-19T07:51:08.796Z,0.00
2023-02-19T07:53:36.456Z,1.90
2023-02-19T07:56:07.318Z,-0.70
2023-02-19T07:58:35.402Z,-0.40
2023-02-19T08:01:11.847Z,1.00
2023-02-19T08:03:39.799Z,1.60
2023-02-19T08:06:08.554Z,0.20
2023-02-19T08:08:35.981Z,-0.60
2023-02-19T08:11:24.043Z,1.80
2023-02-19T08:13:52.692Z,-0.60
2023-02-19T08:16:33.160Z,-0.70
2023-02-19T08:19:04.790Z,-0.70
2023-02-19T08:21:34.304Z,-1.30
2023-02-19T08:24:01.933Z,-0.60
2023-02-19T08:26:29.259Z,-0.90
2023-02-19T08:28:56.504Z,1.10
2023-02-19T08:31:24.052Z,1.00
2023-02-19T08:33:51.456Z,2.00
2023-02-19T08:36:19.125Z,1.80
2023-02-19T08:38:46.538Z,-0.60
2023-02-19T08:41:15.277Z,1.90
2023-02-19T08:43:43.623Z,0.50
2023-02-19T08:46:12.141Z,-0.80
2023-02-19T08:48:40.246Z,-0.30
2023-02-19T08:51:10.658Z,-0.50
2023-02-19T08:53:39.515Z,1.50
2023-02-19T08:56:07.629Z,-1.10
2023-02-19T08:58:36.181Z,1.80
2023-02-19T09:01:07.735Z,-0.60
2023-02-19T09:03:35.166Z,-0.70
2023-02-19T09:06:04.105Z,-0.60
2023-02-19T09:08:31.626Z,-0.20
2023-02-19T09:11:00.772Z,-0.70
2023-02-19T09:13:28.592Z,3.00
2023-02-19T09:15:57.223Z,-0.30
2023-02-19T09:18:26.159Z,0.00
2023-02-19T09:20:53.784Z,-0.40
2023-02-19T09:23:21.479Z,-0.80
2023-02-19T09:25:48.929Z,-0.60
2023-02-19T09:28:17.048Z,0.80
2023-02-19T09:30:44.422Z,1.60
2023-02-19T09:33:11.775Z,-0.60
2023-02-19T09:35:40.797Z,0.00
2023-02-19T09:38:10.637Z,-0.40
2023-02-19T09:40:39.355Z,0.60
2023-02-19T09:43:10.039Z,0.20
2023-02-19T09:45:38.356Z,-0.40
2023-02-19T09:48:06.579Z,-0.20
2023-02-19T09:50:41.369Z,-0.50
2023-02-19T09:53:22.338Z,2.00
2023-02-19T09:55:50.392Z,-0.30
2023-02-19T09:58:32.469Z,-0.50
2023-02-19T10:01:02.816Z,0.10
2023-02-19T10:03:34.550Z,0.50
2023-02-19T10:06:09.376Z,2.10
2023-02-19T10:08:40.575Z,-0.20
2023-02-19T10:11:12.617Z,1.90
2023-02-19T10:13:54.713Z,2.40
2023-02-19T10:16:26.542Z,0.80
2023-02-19T10:18:54.069Z,1.70
2023-02-19T10:21:24.505Z,-0.60
2023-02-19T10:23:55.945Z,-0.60
2023-02-19T10:26:24.572Z,2.10
2023-02-19T10:28:52.049Z,0.50
2023-02-19T10:31:22.497Z,-0.60
2023-02-19T10:33:52.572Z,1.30
2023-02-19T10:36:31.640Z,0.50
2023-02-19T10:39:03.601Z,0.50
2023-02-19T10:41:31.614Z,0.50
2023-02-19T10:44:07.152Z,1.90
2023-02-19T10:46:44.353Z,-0.80
2023-02-19T10:49:30.209Z,1.60
2023-02-19T10:52:20.437Z,-0.10
2023-02-19T10:54:56.696Z,-0.60
2023-02-19T10:57:29.945Z,-0.50
2023-02-19T11:00:04.476Z,-0.70
2023-02-19T11:02:32.103Z,-0.20
2023-02-19T11:05:04.685Z,-0.70
2023-02-19T11:07:32.613Z,-0.30
2023-02-19T11:10:00.418Z,2.00
2023-02-19T11:12:32.163Z,-0.10
2023-02-19T11:15:25.236Z,-0.30
2023-02-19T11:18:28.816Z,-0.50
2023-02-19T11:20:59.114Z,-1.20
2023-02-19T11:23:28.844Z,1.70
2023-02-19T11:25:59.172Z,0.00
2023-02-19T11:28:43.157Z,1.90
2023-02-19T11:31:24.614Z,-0.30
2023-02-19T11:34:00.912Z,-0.10
2023-02-19T11:36:34.445Z,0.80
2023-02-19T11:39:16.833Z,-0.30
2023-02-19T11:42:00.698Z,0.00
2023-02-19T11:44:55.354Z,-0.30
2023-02-19T11:47:50.084Z,-0.20
2023-02-19T11:50:33.324Z,-0.30
2023-02-19T11:53:27.664Z,-0.30
2023-02-19T11:56:00.856Z,0.00
2023-02-19T11:58:43.293Z,0.40
2023-02-19T12:01:48.397Z,0.00
2023-02-19T12:04:54.367Z,-0.10
2023-02-19T12:07:49.173Z,-0.70
2023-02-19T12:10:19.352Z,-0.50
2023-02-19T12:13:31.468Z,-0.30
2023-02-19T12:16:16.882Z,-0.30
2023-02-19T12:18:47.276Z,-0.40
2023-02-19T12:21:34.222Z,-0.50
2023-02-19T12:24:22.807Z,-0.30
2023-02-19T12:27:28.152Z,0.70
2023-02-19T12:30:01.015Z,-0.40
2023-02-19T12:32:47.668Z,0.00
2023-02-19T12:35:32.357Z,-0.20
2023-02-19T12:38:35.500Z,-0.30
2023-02-19T12:41:23.648Z,-0.20
2023-02-19T12:43:55.648Z,-0.30
2023-02-19T12:46:33.429Z,-0.40
2023-02-19T12:49:45.723Z,0.10
2023-02-19T12:52:24.246Z,-0.10
2023-02-19T12:54:55.873Z,-0.30
2023-02-19T12:57:29.115Z,2.90
2023-02-19T13:00:21.126Z,0.80
2023-02-19T13:03:14.268Z,-0.40
2023-02-19T13:05:49.989Z,0.00
2023-02-19T13:09:05.300Z,-0.20
2023-02-19T13:11:44.341Z,-0.30
2023-02-19T13:14:24.120Z,-0.50
2023-02-19T13:17:09.740Z,-0.40
2023-02-19T13:19:38.867Z,-0.50
2023-02-19T13:22:46.445Z,-0.80
2023-02-19T13:25:16.796Z,-0.40
2023-02-19T13:27:55.403Z,-0.60
2023-02-19T13:31:04.542Z,-0.50
2023-02-19T13:33:42.336Z,-0.40
2023-02-19T13:36:15.140Z,-0.80
2023-02-19T13:38:46.086Z,-1.00
2023-02-19T13:41:32.315Z,-1.00
2023-02-19T13:44:06.147Z,-0.90
2023-02-19T13:46:42.930Z,-1.10
2023-02-19T13:49:28.453Z,-0.90
2023-02-19T13:51:58.008Z,-1.10
2023-02-19T13:54:25.581Z,-0.50
2023-02-19T13:57:23.990Z,0.40
2023-02-19T13:59:56.007Z,-0.60
2023-02-19T14:02:23.438Z,-0.80
2023-02-19T14:05:00.185Z,-1.40
2023-02-19T14:07:27.494Z,-1.10
2023-02-19T14:09:55.224Z,-1.20
2023-02-19T14:12:34.816Z,0.90
2023-02-19T14:15:40.642Z,-0.70
2023-02-19T14:18:43.513Z,-0.80
2023-02-19T14:21:38.762Z,-0.90
2023-02-19T14:24:11.920Z,-1.50
2023-02-19T14:26:40.765Z,-0.90
2023-02-19T14:29:10.745Z,-1.00
2023-02-19T14:31:39.325Z,1.60
2023-02-19T14:34:22.968Z,0.30
2023-02-19T14:36:54.814Z,-1.10
2023-02-19T14:39:30.467Z,-0.70
2023-02-19T14:42:00.989Z,-1.00
2023-02-19T14:44:31.587Z,-1.00
2023-02-19T14:46:58.916Z,0.40
2023-02-19T14:49:26.352Z,1.60
2023-02-19T14:52:04.140Z,-0.70
2023-02-19T14:54:37.880Z,-0.60
2023-02-19T14:57:11.221Z,-0.80
2023-02-19T14:59:38.831Z,-1.00
2023-02-19T15:02:21.190Z,-1.00
2023-02-19T15:04:48.677Z,-0.10
2023-02-19T15:07:21.742Z,-1.00
2023-02-19T15:09:51.892Z,-0.90
2023-02-19T15:12:23.093Z,-1.10
2023-02-19T15:14:53.166Z,-0.40
2023-02-19T15:17:30.768Z,-1.20
2023-02-19T15:20:03.279Z,-1.10
2023-02-19T15:22:34.102Z,-1.20
2023-02-19T15:25:03.001Z,-0.80
2023-02-19T15:27:30.918Z,-1.30
2023-02-19T15:29:58.253Z,-2.00
2023-02-19T15:32:27.937Z,-1.30
2023-02-19T15:35:00.448Z,1.80
2023-02-19T15:37:33.910Z,-1.10
2023-02-19T15:40:07.829Z,0.20
2023-02-19T15:42:38.173Z,-0.90
2023-02-19T15:45:26.773Z,-0.80
2023-02-19T15:48:00.135Z,-1.70
2023-02-19T15:50:33.817Z,-1.50
2023-02-19T15:53:14.030Z,-1.80
2023-02-19T15:55:53.107Z,-0.80
2023-02-19T15:58:40.590Z,-1.70
2023-02-19T16:01:20.295Z,-1.60
2023-02-19T16:03:48.550Z,-2.00
2023-02-19T16:06:18.161Z,-1.50
2023-02-19T16:09:06.150Z,-1.80
2023-02-19T16:11:51.815Z,-1.30
2023-02-19T16:14:39.722Z,-1.70
2023-02-19T16:17:10.016Z,-1.60
2023-02-19T16:19:54.283Z,-1.80
2023-02-19T16:22:24.657Z,-1.40
2023-02-19T16:24:56.040Z,-1.90
2023-02-19T16:27:43.880Z,-1.90
2023-02-19T16:30:17.316Z,-1.70
2023-02-19T16:32:47.052Z,-1.70
2023-02-19T16:35:41.914Z,-1.80
2023-02-19T16:38:20.828Z,-1.50
2023-02-19T16:40:51.279Z,-1.40
2023-02-19T16:43:52.200Z,-1.80
2023-02-19T16:46:20.139Z,-1.50
2023-02-19T16:48:47.651Z,-1.50
2023-02-19T16:51:23.929Z,-1.10
2023-02-19T16:53:51.220Z,-1.90
2023-02-19T16:56:22.925Z,-1.20
2023-02-19T16:58:50.910Z,-1.90
2023-02-19T17:01:18.668Z,-2.20
2023-02-19T17:03:48.027Z,-2.00
2023-02-19T17:06:16.067Z,-1.80
2023-02-19T17:08:44.807Z,-2.00
2023-02-19T17:11:16.852Z,0.00
2023-02-19T17:13:46.307Z,-2.10
2023-02-19T17:16:22.507Z,-2.10
2023-02-19T17:18:50.852Z,-2.20
2023-02-19T17:21:23.040Z,-2.10
2023-02-19T17:23:51.000Z,-1.50
2023-02-19T17:26:26.308Z,-2.00
2023-02-19T17:28:55.730Z,-2.00
2023-02-19T17:31:23.204Z,1.30
2023-02-19T17:33:51.392Z,-2.00
2023-02-19T17:36:21.950Z,-2.20
2023-02-19T17:38:49.416Z,-2.30
2023-02-19T17:41:16.836Z,-0.90
2023-02-19T17:43:44.341Z,-2.40
2023-02-19T17:46:20.180Z,-2.20
2023-02-19T17:48:47.867Z,-2.30
2023-02-19T17:51:15.424Z,-2.20
2023-02-19T17:53:43.030Z,-2.20
2023-02-19T17:56:16.274Z,-2.40
2023-02-19T17:58:43.727Z,-2.50
2023-02-19T18:01:11.578Z,-2.50
2023-02-19T18:03:39.299Z,-2.10
2023-02-19T18:06:07.234Z,-1.90
2023-02-19T18:08:34.714Z,-2.20
2023-02-19T18:11:03.477Z,-2.40
2023-02-19T18:13:30.950Z,-2.40
2023-02-19T18:15:58.531Z,-2.50
2023-02-19T18:18:26.033Z,-2.10
2023-02-19T18:20:53.392Z,-2.40
2023-02-19T18:23:20.789Z,-2.20
2023-02-19T18:25:48.378Z,-2.10
2023-02-19T18:28:16.386Z,-2.30
2023-02-19T18:30:43.934Z,-2.00
2023-02-19T18:33:13.352Z,-2.40
2023-02-19T18:35:40.798Z,-2.40
2023-02-19T18:38:08.174Z,-2.30
2023-02-19T18:40:35.651Z,-2.30
2023-02-19T18:43:02.994Z,-2.40
2023-02-19T18:45:35.224Z,-2.20
2023-02-19T18:48:03.401Z,-2.40
2023-02-19T18:50:30.980Z,-2.50
2023-02-19T18:52:58.309Z,-2.60
2023-02-19T18:55:25.771Z,-2.30
2023-02-19T18:57:53.201Z,-1.80
2023-02-19T19:00:23.809Z,-2.50
2023-02-19T19:02:51.578Z,-1.60
2023-02-19T19:05:23.736Z,-2.40
2023-02-19T19:07:55.855Z,-2.30
2023-02-19T19:10:23.561Z,-2.20
2023-02-19T19:12:52.178Z,-2.50
2023-02-19T19:15:20.350Z,-2.30
2023-02-19T19:17:48.536Z,-2.60
2023-02-19T19:20:23.798Z,-1.80
2023-02-19T19:22:54.570Z,-2.50
2023-02-19T19:25:25.652Z,-2.10
2023-02-19T19:27:56.268Z,-2.50
2023-02-19T19:30:23.827Z,-2.90
2023-02-19T19:32:52.696Z,-2.60
2023-02-19T19:35:21.697Z,-2.50
2023-02-19T19:37:49.442Z,-2.60
2023-02-19T19:40:18.247Z,-2.60
2023-02-19T19:42:46.497Z,-1.10
2023-02-19T19:45:14.171Z,-2.60
2023-02-19T19:47:41.683Z,-0.20
2023-02-19T19:50:09.897Z,-2.40
2023-02-19T19:52:37.385Z,-2.40
2023-02-19T19:55:05.585Z,-2.60
2023-02-19T19:57:32.983Z,-2.30
2023-02-19T20:00:00.503Z,-2.70
2023-02-19T20:02:28.109Z,-2.70
2023-02-19T20:04:55.549Z,-2.70
2023-02-19T20:07:23.056Z,-2.90
2023-02-19T20:09:50.843Z,-2.50
2023-02-19T20:12:18.330Z,-3.00
2023-02-19T20:14:46.845Z,-2.80
2023-02-19T20:17:15.446Z,-1.90
2023-02-19T20:19:42.887Z,-3.10
2023-02-19T20:22:10.312Z,-3.70
2023-02-19T20:24:38.083Z,-3.00
2023-02-19T20:27:05.479Z,-3.40
2023-02-19T20:29:34.496Z,-2.90
2023-02-19T20:32:03.807Z,-2.50
2023-02-19T20:34:31.684Z,-3.20
2023-02-19T20:36:59.569Z,-2.80
2023-02-19T20:39:29.292Z,-2.60
2023-02-19T20:41:58.452Z,-2.80
2023-02-19T20:44:27.616Z,-2.80
2023-02-19T20:46:56.613Z,-0.30
2023-02-19T20:49:30.069Z,-2.80
2023-02-19T20:52:00.543Z,-1.70
2023-02-19T20:54:33.308Z,-0.20
2023-02-19T20:57:03.363Z,-2.40
2023-02-19T20:59:35.473Z,-2.90
2023-02-19T21:02:05.626Z,-3.10
2023-02-19T21:04:33.702Z,-3.20
2023-02-19T21:07:01.339Z,-3.00
2023-02-19T21:09:28.864Z,-0.50
2023-02-19T21:11:56.290Z,-3.30
2023-02-19T21:14:23.927Z,-2.80
2023-02-19T21:16:51.271Z,-3.10
2023-02-19T21:19:18.616Z,-3.30
2023-02-19T21:21:45.975Z,-3.00
2023-02-19T21:24:15.243Z,-3.20
2023-02-19T21:26:43.502Z,-3.20
2023-02-19T21:29:16.346Z,-3.30
2023-02-19T21:31:45.654Z,-3.70
2023-02-19T21:34:14.785Z,-3.70
2023-02-19T21:36:42.541Z,-3.50
2023-02-19T21:39:13.415Z,-3.40
2023-02-19T21:41:40.901Z,-2.80
2023-02-19T21:44:08.574Z,-3.50
2023-02-19T21:46:36.012Z,-2.90
2023-02-19T21:49:04.296Z,-1.50
2023-02-19T21:51:37.253Z,-3.10
2023-02-19T21:54:06.226Z,-3.20
2023-02-19T21:56:36.371Z,-3.20
2023-02-19T21:59:04.678Z,-3.70
2023-02-19T22:01:34.826Z,-3.70
2023-02-19T22:04:02.138Z,-3.20
2023-02-19T22:06:31.026Z,-3.40
2023-02-19T22:08:59.670Z,-3.10
2023-02-19T22:11:27.717Z,-3.90
2023-02-19T22:13:55.188Z,-3.90
2023-02-19T22:16:22.772Z,-4.00
2023-02-19T22:18:56.110Z,-4.50
2023-02-19T22:21:25.481Z,-3.70
2023-02-19T22:23:53.835Z,-4.20
2023-02-19T22:26:23.765Z,-3.70
2023-02-19T22:28:51.935Z,-3.80
2023-02-19T22:31:21.880Z,-3.70
2023-02-19T22:33:49.747Z,-3.70
2023-02-19T22:36:26.167Z,-3.50
2023-02-19T22:38:54.267Z,-3.80
2023-02-19T22:41:22.369Z,-3.80
2023-02-19T22:43:49.958Z,-4.10
2023-02-19T22:46:20.045Z,-3.60
2023-02-19T22:48:47.690Z,-3.60
2023-02-19T22:51:17.567Z,-3.70
2023-02-19T22:53:45.197Z,-3.50
2023-02-19T22:56:14.763Z,-2.70
2023-02-19T22:58:43.114Z,-3.60
2023-02-19T23:01:12.192Z,-3.80
2023-02-19T23:03:52.807Z,-1.60
2023-02-19T23:06:28.993Z,-3.40
2023-02-19T23:08:58.450Z,-4.50
2023-02-19T23:11:32.030Z,-4.20
2023-02-19T23:13:59.860Z,-4.20
2023-02-19T23:16:27.961Z,-4.10
2023-02-19T23:18:55.661Z,-3.00
2023-02-19T23:21:23.877Z,-4.80
2023-02-19T23:23:51.223Z,-4.50
2023-02-19T23:26:18.659Z,-4.10
2023-02-19T23:28:47.271Z,-4.00
2023-02-19T23:31:16.019Z,-4.30
2023-02-19T23:33:43.732Z,-4.20
2023-02-19T23:36:13.023Z,-4.30
2023-02-19T23:38:43.332Z,-3.90
2023-02-19T23:41:12.524Z,-4.10
2023-02-19T23:43:40.207Z,-4.20
2023-02-19T23:46:08.138Z,-4.20
2023-02-19T23:48:35.765Z,-4.20
2023-02-19T23:51:03.277Z,-4.20
2023-02-19T23:53:30.776Z,-3.70
2023-02-19T23:55:58.291Z,-4.10
2023-02-19T23:58:25.787Z,-4.00
